createdAt,value
2022-10-18T00:00:25.711Z,100.00
2022-10-18T00:02:53.297Z,100.00
2022-10-18T00:05:20.919Z,100.00
2022-10-18T00:07:48.539Z,100.00
2022-10-18T00:10:16.296Z,100.00
2022-10-18T00:12:44.052Z,100.00
2022-10-18T00:15:12.510Z,100.00
2022-10-18T00:17:41.486Z,100.00
2022-10-18T00:20:10.500Z,100.00
2022-10-18T00:22:39.870Z,100.00
2022-10-18T00:25:08.867Z,100.00
2022-10-18T00:27:37.095Z,100.00
2022-10-18T00:30:05.546Z,100.00
2022-10-18T00:32:37.246Z,100.00
2022-10-18T00:35:07.748Z,100.00
2022-10-18T00:37:36.202Z,100.00
2022-10-18T00:40:03.942Z,100.00
2022-10-18T00:42:34.541Z,100.00
2022-10-18T00:45:19.456Z,100.00
2022-10-18T00:47:51.604Z,100.00
2022-10-18T00:50:21.743Z,100.00
2022-10-18T00:52:53.297Z,100.00
2022-10-18T00:55:21.538Z,100.00
2022-10-18T00:57:50.222Z,100.00
2022-10-18T01:00:18.708Z,100.00
2022-10-18T01:02:47.797Z,100.00
2022-10-18T01:05:17.857Z,100.00
2022-10-18T01:08:02.389Z,100.00
2022-10-18T01:10:35.941Z,100.00
2022-10-18T01:13:19.879Z,100.00
2022-10-18T01:15:59.053Z,100.00
2022-10-18T01:18:31.902Z,100.00
2022-10-18T01:21:10.047Z,100.00
2022-10-18T01:24:03.432Z,100.00
2022-10-18T01:26:44.455Z,100.00
2022-10-18T01:29:24.132Z,100.00
2022-10-18T01:31:59.577Z,100.00
2022-10-18T01:34:29.949Z,100.00
2022-10-18T01:36:58.598Z,100.00
2022-10-18T01:39:30.824Z,100.00
2022-10-18T01:42:01.967Z,100.00
2022-10-18T01:44:33.293Z,100.00
2022-10-18T01:47:02.465Z,100.00
2022-10-18T01:49:30.143Z,100.00
2022-10-18T01:51:57.751Z,100.00
2022-10-18T01:54:30.655Z,100.00
2022-10-18T01:57:03.276Z,100.00
2022-10-18T01:59:40.581Z,100.00
2022-10-18T02:02:19.917Z,100.00
2022-10-18T02:04:55.084Z,100.00
2022-10-18T02:07:34.331Z,100.00
2022-10-18T02:10:09.640Z,100.00
2022-10-18T02:12:41.748Z,100.00
2022-10-18T02:15:13.000Z,100.00
2022-10-18T02:17:42.075Z,100.00
2022-10-18T02:21:23.679Z,100.00
2022-10-18T02:23:51.579Z,100.00
2022-10-18T02:26:19.553Z,100.00
2022-10-18T02:28:47.272Z,100.00
2022-10-18T02:31:20.191Z,100.00
2022-10-18T02:33:54.416Z,100.00
2022-10-18T02:36:27.695Z,100.00
2022-10-18T02:38:57.811Z,100.00
2022-10-18T02:41:27.414Z,100.00
2022-10-18T02:43:55.391Z,100.00
2022-10-18T02:46:23.271Z,100.00
2022-10-18T02:48:52.318Z,100.00
2022-10-18T02:51:19.946Z,100.00
2022-10-18T02:53:47.635Z,100.00
2022-10-18T02:56:15.355Z,100.00
2022-10-18T02:58:43.139Z,100.00
2022-10-18T03:01:10.787Z,100.00
2022-10-18T03:03:38.450Z,100.00
2022-10-18T03:06:07.730Z,100.00
2022-10-18T03:08:36.598Z,100.00
2022-10-18T03:11:04.399Z,100.00
2022-10-18T03:13:33.904Z,100.00
2022-10-18T03:16:01.788Z,100.00
2022-10-18T03:18:29.381Z,100.00
2022-10-18T03:20:57.114Z,100.00
2022-10-18T03:23:26.174Z,100.00
2022-10-18T03:25:53.791Z,100.00
2022-10-18T03:28:22.033Z,100.00
2022-10-18T03:30:49.571Z,100.00
2022-10-18T03:33:17.412Z,100.00
2022-10-18T03:35:45.074Z,100.00
2022-10-18T03:38:12.608Z,100.00
2022-10-18T03:40:41.644Z,100.00
2022-10-18T03:43:09.287Z,100.00
2022-10-18T03:45:36.895Z,100.00
2022-10-18T03:48:04.985Z,100.00
2022-10-18T03:50:32.585Z,100.00
2022-10-18T03:53:00.178Z,100.00
2022-10-18T03:55:27.902Z,100.00
2022-10-18T03:57:56.832Z,100.00
2022-10-18T04:00:24.466Z,100.00
2022-10-18T04:02:55.051Z,100.00
2022-10-18T04:05:26.827Z,100.00
2022-10-18T04:07:54.476Z,100.00
2022-10-18T04:10:22.053Z,100.00
2022-10-18T04:12:49.694Z,100.00
2022-10-18T04:15:18.753Z,100.00
2022-10-18T04:17:46.356Z,100.00
2022-10-18T04:20:14.345Z,100.00
2022-10-18T04:22:42.029Z,100.00
2022-10-18T04:25:09.864Z,100.00
2022-10-18T04:27:37.511Z,100.00
2022-10-18T04:30:05.993Z,100.00
2022-10-18T04:32:35.453Z,100.00
2022-10-18T04:35:03.051Z,100.00
2022-10-18T04:37:31.088Z,100.00
2022-10-18T04:39:58.981Z,100.00
2022-10-18T04:42:26.977Z,100.00
2022-10-18T04:44:54.710Z,100.00
2022-10-18T04:47:22.351Z,100.00
2022-10-18T04:49:51.288Z,100.00
2022-10-18T04:52:18.915Z,100.00
2022-10-18T04:54:46.662Z,100.00
2022-10-18T04:57:14.263Z,100.00
2022-10-18T04:59:41.853Z,100.00
2022-10-18T05:02:09.519Z,100.00
2022-10-18T05:04:37.076Z,100.00
2022-10-18T05:07:06.597Z,100.00
2022-10-18T05:09:34.280Z,100.00
2022-10-18T05:12:01.874Z,100.00
2022-10-18T05:14:29.483Z,100.00
2022-10-18T05:16:57.030Z,100.00
2022-10-18T05:19:24.695Z,100.00
2022-10-18T05:21:52.298Z,100.00
2022-10-18T05:24:23.026Z,100.00
2022-10-18T05:26:53.086Z,100.00
2022-10-18T05:29:20.772Z,100.00
2022-10-18T05:31:49.385Z,100.00
2022-10-18T05:34:17.267Z,100.00
2022-10-18T05:36:44.990Z,100.00
2022-10-18T05:39:12.573Z,100.00
2022-10-18T05:41:41.480Z,100.00
2022-10-18T05:44:09.136Z,100.00
2022-10-18T05:46:36.881Z,100.00
2022-10-18T05:49:04.463Z,100.00
2022-10-18T05:51:32.231Z,100.00
2022-10-18T05:54:00.655Z,100.00
2022-10-18T05:56:28.330Z,100.00
2022-10-18T05:58:57.985Z,100.00
2022-10-18T06:01:25.627Z,100.00
2022-10-18T06:03:53.176Z,100.00
2022-10-18T06:06:22.342Z,100.00
2022-10-18T06:08:50.675Z,100.00
2022-10-18T06:11:20.384Z,100.00
2022-10-18T06:13:49.795Z,100.00
2022-10-18T06:16:21.394Z,100.00
2022-10-18T06:18:49.855Z,100.00
2022-10-18T06:21:17.555Z,100.00
2022-10-18T06:23:48.859Z,100.00
2022-10-18T06:26:16.424Z,100.00
2022-10-18T06:28:44.395Z,100.00
2022-10-18T06:31:13.824Z,100.00
2022-10-18T06:33:42.893Z,100.00
2022-10-18T06:36:13.303Z,100.00
2022-10-18T06:38:41.500Z,100.00
2022-10-18T06:41:09.831Z,100.00
2022-10-18T06:43:37.646Z,100.00
2022-10-18T06:46:07.647Z,100.00
2022-10-18T06:48:36.004Z,100.00
2022-10-18T06:51:06.747Z,100.00
2022-10-18T06:53:40.807Z,100.00
2022-10-18T06:56:13.603Z,100.00
2022-10-18T06:58:41.519Z,100.00
2022-10-18T07:01:10.773Z,100.00
2022-10-18T07:03:38.467Z,100.00
2022-10-18T07:06:09.490Z,100.00
2022-10-18T07:08:37.780Z,100.00
2022-10-18T07:11:05.804Z,100.00
2022-10-18T07:13:34.171Z,100.00
2022-10-18T07:16:03.258Z,100.00
2022-10-18T07:18:30.910Z,100.00
2022-10-18T07:20:58.465Z,100.00
2022-10-18T07:23:27.446Z,100.00
2022-10-18T07:25:54.981Z,100.00
2022-10-18T07:28:22.631Z,100.00
2022-10-18T07:30:50.311Z,100.00
2022-10-18T07:33:17.892Z,100.00
2022-10-18T07:35:45.468Z,100.00
2022-10-18T07:38:13.062Z,100.00
2022-10-18T07:40:42.045Z,100.00
2022-10-18T07:43:12.158Z,100.00
2022-10-18T07:45:40.093Z,100.00
2022-10-18T07:48:07.950Z,100.00
2022-10-18T07:50:36.008Z,100.00
2022-10-18T07:53:03.550Z,100.00
2022-10-18T07:55:31.297Z,100.00
2022-10-18T07:58:01.227Z,100.00
2022-10-18T08:00:28.857Z,100.00
2022-10-18T08:02:56.902Z,100.00
2022-10-18T08:05:24.762Z,100.00
2022-10-18T08:07:52.565Z,100.00
2022-10-18T08:10:20.717Z,100.00
2022-10-18T08:12:48.328Z,100.00
2022-10-18T08:15:17.612Z,100.00
2022-10-18T08:17:45.262Z,100.00
2022-10-18T08:20:29.948Z,100.00
2022-10-18T08:23:00.338Z,100.00
2022-10-18T08:25:28.852Z,100.00
2022-10-18T08:27:56.591Z,100.00
2022-10-18T08:30:25.595Z,100.00
2022-10-18T08:32:53.485Z,100.00
2022-10-18T08:35:21.159Z,100.00
2022-10-18T08:37:48.769Z,100.00
2022-10-18T08:40:17.265Z,100.00
2022-10-18T08:43:07.242Z,100.00
2022-10-18T08:45:42.992Z,100.00
2022-10-18T08:48:21.796Z,100.00
2022-10-18T08:50:51.380Z,100.00
2022-10-18T08:53:25.366Z,100.00
2022-10-18T08:55:58.491Z,100.00
2022-10-18T08:58:27.811Z,100.00
2022-10-18T09:01:03.894Z,100.00
2022-10-18T09:03:49.153Z,100.00
2022-10-18T09:06:23.621Z,100.00
2022-10-18T09:09:02.797Z,100.00
2022-10-18T09:11:48.216Z,100.00
2022-10-18T09:14:40.455Z,100.00
2022-10-18T09:17:16.098Z,100.00
2022-10-18T09:22:44.820Z,100.00
2022-10-18T09:25:20.124Z,100.00
2022-10-18T09:27:53.862Z,100.00
2022-10-18T09:30:33.220Z,100.00
2022-10-18T09:33:14.577Z,100.00
2022-10-18T09:35:48.746Z,100.00
2022-10-18T09:38:22.291Z,100.00
2022-10-18T09:40:55.973Z,100.00
2022-10-18T09:43:26.788Z,100.00
2022-10-18T09:45:56.571Z,100.00
2022-10-18T09:48:29.875Z,100.00
2022-10-18T09:51:01.948Z,100.00
2022-10-18T09:53:37.593Z,100.00
2022-10-18T09:56:09.449Z,100.00
2022-10-18T09:58:41.485Z,100.00
2022-10-18T10:01:09.843Z,100.00
2022-10-18T10:03:38.759Z,100.00
2022-10-18T10:06:17.945Z,100.00
2022-10-18T10:08:49.833Z,100.00
2022-10-18T10:11:31.514Z,100.00
2022-10-18T10:14:07.972Z,100.00
2022-10-18T10:16:44.657Z,100.00
2022-10-18T10:19:24.337Z,100.00
2022-10-18T10:21:55.952Z,100.00
2022-10-18T10:24:30.399Z,100.00
2022-10-18T10:27:07.852Z,100.00
2022-10-18T10:29:51.609Z,100.00
2022-10-18T10:32:21.563Z,100.00
2022-10-18T10:34:51.116Z,100.00
2022-10-18T10:37:27.810Z,100.00
2022-10-18T10:40:23.104Z,100.00
2022-10-18T10:43:12.727Z,100.00
2022-10-18T10:45:59.343Z,100.00
2022-10-18T10:48:33.141Z,100.00
2022-10-18T10:51:05.999Z,100.00
2022-10-18T10:53:39.192Z,100.00
2022-10-18T10:56:15.834Z,100.00
2022-10-18T10:58:44.142Z,100.00
2022-10-18T11:01:21.473Z,100.00
2022-10-18T11:03:50.779Z,100.00
2022-10-18T11:06:43.112Z,100.00
2022-10-18T11:09:23.817Z,100.00
2022-10-18T11:12:03.137Z,100.00
2022-10-18T11:14:37.326Z,100.00
2022-10-18T11:17:13.073Z,100.00
2022-10-18T11:20:05.402Z,100.00
2022-10-18T11:22:40.826Z,100.00
2022-10-18T11:25:14.106Z,100.00
2022-10-18T11:27:44.777Z,100.00
2022-10-18T11:30:38.180Z,100.00
2022-10-18T11:33:19.835Z,100.00
2022-10-18T11:35:54.215Z,100.00
2022-10-18T11:38:41.130Z,100.00
2022-10-18T11:41:22.569Z,100.00
2022-10-18T11:44:02.654Z,100.00
2022-10-18T11:46:46.219Z,100.00
2022-10-18T11:49:28.576Z,100.00
2022-10-18T11:52:08.809Z,100.00
2022-10-18T11:54:58.564Z,100.00
2022-10-18T11:57:38.281Z,98.95
2022-10-18T12:00:20.184Z,97.67
2022-10-18T12:03:12.830Z,97.93
2022-10-18T12:05:44.279Z,98.41
2022-10-18T12:08:15.710Z,98.45
2022-10-18T12:11:03.940Z,96.45
2022-10-18T12:13:38.160Z,96.08
2022-10-18T12:16:08.945Z,96.33
2022-10-18T12:18:42.745Z,97.26
2022-10-18T12:21:14.036Z,97.34
2022-10-18T12:23:47.591Z,96.40
2022-10-18T12:26:17.926Z,94.82
2022-10-18T12:28:55.397Z,93.91
2022-10-18T12:31:29.893Z,92.30
2022-10-18T12:34:01.363Z,92.43
2022-10-18T12:36:45.368Z,93.68
2022-10-18T12:39:29.122Z,94.23
2022-10-18T12:42:19.996Z,93.41
2022-10-18T12:44:48.418Z,90.79
2022-10-18T12:47:23.982Z,91.24
2022-10-18T12:50:00.241Z,91.07
2022-10-18T12:52:29.854Z,87.68
2022-10-18T12:55:27.630Z,87.15
2022-10-18T12:58:07.087Z,85.24
2022-10-18T13:01:08.589Z,81.19
2022-10-18T13:03:52.873Z,80.03
2022-10-18T13:06:21.006Z,80.26
2022-10-18T13:08:51.041Z,79.20
2022-10-18T13:11:35.886Z,78.93
2022-10-18T13:14:26.931Z,78.92
2022-10-18T13:17:02.780Z,80.45
2022-10-18T13:19:40.094Z,80.25
2022-10-18T13:22:30.318Z,76.01
2022-10-18T13:25:04.901Z,73.97
2022-10-18T13:27:43.227Z,74.27
2022-10-18T13:30:32.698Z,74.74
2022-10-18T13:33:10.772Z,73.47
2022-10-18T13:35:54.935Z,73.59
2022-10-18T13:38:51.536Z,73.14
2022-10-18T13:41:21.416Z,74.59
2022-10-18T13:44:13.595Z,75.22
2022-10-18T13:46:59.992Z,74.85
2022-10-18T13:49:37.826Z,74.35
2022-10-18T13:52:14.128Z,73.57
2022-10-18T13:54:58.594Z,74.68
2022-10-18T13:57:44.676Z,75.27
2022-10-18T14:00:32.647Z,72.41
2022-10-18T14:03:51.858Z,70.26
2022-10-18T14:06:17.432Z,69.83
2022-10-18T14:08:48.972Z,68.96
2022-10-18T14:11:28.212Z,69.35
2022-10-18T14:14:03.225Z,69.68
2022-10-18T14:16:38.142Z,69.42
2022-10-18T14:19:18.515Z,68.07
2022-10-18T14:21:55.292Z,67.04
2022-10-18T14:24:25.639Z,67.73
2022-10-18T14:27:18.195Z,67.60
2022-10-18T14:29:45.905Z,68.81
2022-10-18T14:32:24.959Z,68.22
2022-10-18T14:34:53.891Z,68.01
2022-10-18T14:37:29.957Z,68.15
2022-10-18T14:39:57.740Z,68.87
2022-10-18T14:42:27.112Z,68.78
2022-10-18T14:44:56.464Z,68.56
2022-10-18T14:47:26.028Z,68.15
2022-10-18T14:49:57.571Z,68.06
2022-10-18T14:52:32.874Z,68.46
2022-10-18T14:55:03.267Z,67.48
2022-10-18T14:57:34.365Z,66.78
2022-10-18T15:00:04.585Z,68.24
2022-10-18T15:02:36.375Z,68.94
2022-10-18T15:05:09.090Z,68.63
2022-10-18T15:07:38.458Z,68.47
2022-10-18T15:10:07.538Z,69.42
2022-10-18T15:12:41.265Z,70.75
2022-10-18T15:15:28.049Z,71.38
2022-10-18T15:17:55.786Z,71.79
2022-10-18T15:20:26.283Z,71.94
2022-10-18T15:22:56.139Z,70.58
2022-10-18T15:25:31.514Z,68.83
2022-10-18T15:28:01.155Z,68.03
2022-10-18T15:30:31.256Z,68.26
2022-10-18T15:33:00.821Z,69.64
2022-10-18T15:35:30.552Z,70.46
2022-10-18T15:38:03.352Z,71.29
2022-10-18T15:40:34.988Z,72.28
2022-10-18T15:43:05.732Z,72.91
2022-10-18T15:45:39.266Z,73.92
2022-10-18T15:48:24.291Z,73.63
2022-10-18T15:50:53.225Z,72.16
2022-10-18T15:53:33.138Z,71.91
2022-10-18T15:56:03.489Z,72.85
2022-10-18T15:58:38.978Z,74.70
2022-10-18T16:01:15.200Z,76.00
2022-10-18T16:03:44.202Z,76.43
2022-10-18T16:06:15.898Z,75.08
2022-10-18T16:08:49.070Z,75.16
2022-10-18T16:11:18.706Z,75.53
2022-10-18T16:13:46.807Z,75.90
2022-10-18T16:16:17.899Z,76.52
2022-10-18T16:18:45.706Z,76.54
2022-10-18T16:21:19.434Z,76.83
2022-10-18T16:23:48.934Z,77.04
2022-10-18T16:26:17.900Z,77.46
2022-10-18T16:28:46.333Z,77.23
2022-10-18T16:31:18.252Z,77.25
2022-10-18T16:33:46.063Z,76.80
2022-10-18T16:36:17.474Z,76.96
2022-10-18T16:38:46.022Z,77.46
2022-10-18T16:41:15.830Z,77.62
2022-10-18T16:43:44.676Z,78.19
2022-10-18T16:46:15.980Z,78.56
2022-10-18T16:48:44.076Z,78.98
2022-10-18T16:51:12.444Z,78.76
2022-10-18T16:53:40.552Z,79.28
2022-10-18T16:56:14.378Z,79.64
2022-10-18T16:58:44.433Z,79.78
2022-10-18T17:01:13.087Z,79.86
2022-10-18T17:03:42.250Z,79.98
2022-10-18T17:06:15.803Z,80.17
2022-10-18T17:08:43.516Z,80.65
2022-10-18T17:11:12.446Z,80.66
2022-10-18T17:13:40.088Z,81.44
2022-10-18T17:16:22.137Z,82.66
2022-10-18T17:18:49.670Z,83.66
2022-10-18T17:21:17.340Z,84.76
2022-10-18T17:23:44.875Z,85.75
2022-10-18T17:26:28.272Z,86.45
2022-10-18T17:28:59.530Z,86.88
2022-10-18T17:31:29.246Z,87.71
2022-10-18T17:33:58.368Z,87.83
2022-10-18T17:36:26.773Z,87.90
2022-10-18T17:38:55.080Z,88.28
2022-10-18T17:41:22.881Z,88.32
2022-10-18T17:43:50.927Z,88.97
2022-10-18T17:46:19.441Z,89.33
2022-10-18T17:48:48.513Z,89.53
2022-10-18T17:51:18.258Z,89.77
2022-10-18T17:53:46.395Z,89.96
2022-10-18T17:56:15.191Z,89.83
2022-10-18T17:58:44.091Z,89.68
2022-10-18T18:01:12.957Z,89.93
2022-10-18T18:03:41.682Z,89.81
2022-10-18T18:06:18.397Z,90.31
2022-10-18T18:08:47.164Z,90.75
2022-10-18T18:11:15.303Z,91.03
2022-10-18T18:13:43.011Z,91.20
2022-10-18T18:16:13.094Z,91.44
2022-10-18T18:18:40.868Z,91.77
2022-10-18T18:21:08.887Z,92.27
2022-10-18T18:23:37.913Z,92.35
2022-10-18T18:26:05.732Z,92.43
2022-10-18T18:28:33.365Z,93.12
2022-10-18T18:31:01.466Z,92.79
2022-10-18T18:33:29.107Z,93.31
2022-10-18T18:35:57.359Z,93.54
2022-10-18T18:38:25.031Z,94.05
2022-10-18T18:41:05.400Z,94.18
2022-10-18T18:43:33.054Z,94.35
2022-10-18T18:46:00.835Z,94.58
2022-10-18T18:48:29.440Z,94.60
2022-10-18T18:50:57.087Z,95.14
2022-10-18T18:53:28.563Z,95.18
2022-10-18T18:56:03.796Z,95.74
2022-10-18T18:58:31.934Z,95.64
2022-10-18T19:00:59.603Z,95.99
2022-10-18T19:03:27.296Z,96.17
2022-10-18T19:06:03.636Z,96.75
2022-10-18T19:08:31.264Z,97.18
2022-10-18T19:10:58.790Z,97.19
2022-10-18T19:13:27.976Z,97.57
2022-10-18T19:16:11.462Z,97.59
2022-10-18T19:18:39.165Z,98.19
2022-10-18T19:21:07.056Z,98.25
2022-10-18T19:23:34.632Z,98.13
2022-10-18T19:26:11.060Z,98.93
2022-10-18T19:28:40.198Z,99.09
2022-10-18T19:31:07.950Z,99.61
2022-10-18T19:33:48.073Z,100.00
2022-10-18T19:36:16.585Z,100.00
2022-10-18T19:38:44.280Z,100.00
2022-10-18T19:41:11.976Z,100.00
2022-10-18T19:43:41.096Z,100.00
2022-10-18T19:46:08.842Z,100.00
2022-10-18T19:48:36.376Z,100.00
2022-10-18T19:51:09.649Z,100.00
2022-10-18T19:53:38.348Z,100.00
2022-10-18T19:56:09.281Z,100.00
2022-10-18T19:58:37.393Z,100.00
2022-10-18T20:01:06.458Z,100.00
2022-10-18T20:03:34.119Z,100.00
2022-10-18T20:06:03.366Z,100.00
2022-10-18T20:08:33.424Z,100.00
2022-10-18T20:11:02.486Z,100.00
2022-10-18T20:13:30.028Z,100.00
2022-10-18T20:15:57.998Z,100.00
2022-10-18T20:18:27.075Z,100.00
2022-10-18T20:20:54.909Z,100.00
2022-10-18T20:23:22.866Z,100.00
2022-10-18T20:25:58.261Z,100.00
2022-10-18T20:28:26.342Z,100.00
2022-10-18T20:31:05.141Z,100.00
2022-10-18T20:33:36.918Z,100.00
2022-10-18T20:36:07.036Z,100.00
2022-10-18T20:38:35.486Z,100.00
2022-10-18T20:41:05.011Z,100.00
2022-10-18T20:43:33.247Z,100.00
2022-10-18T20:46:01.534Z,100.00
2022-10-18T20:48:30.874Z,100.00
2022-10-18T20:51:03.962Z,100.00
2022-10-18T20:53:31.692Z,100.00
2022-10-18T20:56:06.642Z,100.00
2022-10-18T20:58:35.276Z,100.00
2022-10-18T21:01:07.803Z,100.00
2022-10-18T21:03:38.314Z,100.00
2022-10-18T21:06:11.544Z,100.00
2022-10-18T21:08:39.504Z,100.00
2022-10-18T21:11:07.968Z,100.00
2022-10-18T21:13:35.865Z,100.00
2022-10-18T21:16:07.582Z,100.00
2022-10-18T21:18:40.427Z,100.00
2022-10-18T21:23:46.868Z,100.00
2022-10-18T21:26:15.718Z,100.00
2022-10-18T21:28:43.523Z,100.00
2022-10-18T21:31:13.767Z,100.00
2022-10-18T21:33:42.020Z,100.00
2022-10-18T21:36:09.659Z,100.00
2022-10-18T21:38:39.089Z,100.00
2022-10-18T21:41:11.158Z,100.00
2022-10-18T21:43:41.716Z,100.00
2022-10-18T21:46:09.962Z,100.00
2022-10-18T21:48:38.583Z,100.00
2022-10-18T21:51:08.402Z,100.00
2022-10-18T21:53:38.212Z,100.00
2022-10-18T21:56:07.690Z,100.00
2022-10-18T21:58:35.899Z,100.00
2022-10-18T22:01:08.256Z,100.00
2022-10-18T22:03:36.406Z,100.00
2022-10-18T22:06:07.552Z,100.00
2022-10-18T22:08:35.732Z,100.00
2022-10-18T22:11:05.166Z,100.00
2022-10-18T22:13:32.978Z,100.00
2022-10-18T22:16:01.875Z,100.00
2022-10-18T22:18:30.294Z,100.00
2022-10-18T22:21:00.083Z,100.00
2022-10-18T22:23:32.839Z,100.00
2022-10-18T22:26:05.085Z,100.00
2022-10-18T22:28:32.808Z,100.00
2022-10-18T22:31:00.625Z,100.00
2022-10-18T22:33:28.399Z,100.00
2022-10-18T22:35:56.222Z,100.00
2022-10-18T22:38:23.915Z,100.00
2022-10-18T22:40:51.767Z,100.00
2022-10-18T22:43:20.667Z,100.00
2022-10-18T22:45:48.352Z,100.00
2022-10-18T22:48:15.963Z,100.00
2022-10-18T22:50:43.586Z,100.00
2022-10-18T22:53:11.357Z,100.00
2022-10-18T22:55:38.966Z,100.00
2022-10-18T22:58:06.549Z,100.00
2022-10-18T23:00:35.665Z,100.00
2022-10-18T23:03:03.613Z,100.00
2022-10-18T23:05:31.335Z,100.00
2022-10-18T23:07:59.428Z,100.00
2022-10-18T23:10:27.066Z,100.00
2022-10-18T23:12:54.700Z,100.00
2022-10-18T23:15:22.343Z,100.00
2022-10-18T23:17:54.480Z,100.00
2022-10-18T23:20:22.008Z,100.00
2022-10-18T23:22:49.610Z,100.00
2022-10-18T23:25:17.511Z,100.00
2022-10-18T23:27:45.307Z,100.00
2022-10-18T23:30:13.045Z,100.00
2022-10-18T23:32:40.687Z,100.00
2022-10-18T23:35:10.112Z,100.00
2022-10-18T23:37:37.895Z,100.00
2022-10-18T23:40:06.340Z,100.00
2022-10-18T23:42:33.941Z,100.00
2022-10-18T23:45:01.572Z,100.00
2022-10-18T23:47:29.557Z,100.00
2022-10-18T23:49:58.764Z,100.00
2022-10-18T23:52:27.844Z,100.00
2022-10-18T23:54:55.466Z,100.00
2022-10-18T23:57:23.088Z,100.00
2022-10-18T23:59:50.762Z,100.00
